sensor_id;sensor_type;location;lat;lon;timestamp;P1;P2;P0
57049;PMS7003;42935;50.966;16.992;2023-06-22T00:00:16;38;31;20
57049;PMS7003;42935;50.966;16.992;2023-06-22T00:03:39;31;28;20
57049;PMS7003;42935;50.966;16.992;2023-06-22T00:07:00;32;28;19
57049;PMS7003;42935;50.966;16.992;2023-06-22T00:10:20;31;28;19
57049;PMS7003;42935;50.966;16.992;2023-06-22T00:13:36;30;26;18
57049;PMS7003;42935;50.966;16.992;2023-06-22T00:16:51;32;29;20
57049;PMS7003;42935;50.966;16.992;2023-06-22T00:20:11;29;26;19
57049;PMS7003;42935;50.966;16.992;2023-06-22T00:23:27;31;29;19
57049;PMS7003;42935;50.966;16.992;2023-06-22T00:26:58;32;29;20
57049;PMS7003;42935;50.966;16.992;2023-06-22T00:30:15;29;28;19
57049;PMS7003;42935;50.966;16.992;2023-06-22T00:33:32;38;31;21
57049;PMS7003;42935;50.966;16.992;2023-06-22T00:36:49;34;29;20
57049;PMS7003;42935;50.966;16.992;2023-06-22T00:40:11;37;31;20
57049;PMS7003;42935;50.966;16.992;2023-06-22T00:43:29;37;32;21
57049;PMS7003;42935;50.966;16.992;2023-06-22T00:46:50;28;27;19
57049;PMS7003;42935;50.966;16.992;2023-06-22T00:50:07;37;31;22
57049;PMS7003;42935;50.966;16.992;2023-06-22T00:53:29;34;31;21
57049;PMS7003;42935;50.966;16.992;2023-06-22T00:56:55;34;30;21
57049;PMS7003;42935;50.966;16.992;2023-06-22T01:00:12;36;31;21
57049;PMS7003;42935;50.966;16.992;2023-06-22T01:03:38;32;28;20
57049;PMS7003;42935;50.966;16.992;2023-06-22T01:07:00;35;31;22
57049;PMS7003;42935;50.966;16.992;2023-06-22T01:10:42;33;29;21
57049;PMS7003;42935;50.966;16.992;2023-06-22T01:17:23;35;30;21
57049;PMS7003;42935;50.966;16.992;2023-06-22T01:20:42;33;29;21
57049;PMS7003;42935;50.966;16.992;2023-06-22T01:27:32;37;32;22
57049;PMS7003;42935;50.966;16.992;2023-06-22T01:30:56;36;30;20
57049;PMS7003;42935;50.966;16.992;2023-06-22T01:34:27;35;30;21
57049;PMS7003;42935;50.966;16.992;2023-06-22T01:37:50;35;30;21
57049;PMS7003;42935;50.966;16.992;2023-06-22T01:41:07;40;34;22
57049;PMS7003;42935;50.966;16.992;2023-06-22T01:44:22;38;33;22
57049;PMS7003;42935;50.966;16.992;2023-06-22T01:47:45;35;30;21
57049;PMS7003;42935;50.966;16.992;2023-06-22T01:51:11;38;32;22
57049;PMS7003;42935;50.966;16.992;2023-06-22T01:54:32;37;31;20
57049;PMS7003;42935;50.966;16.992;2023-06-22T01:57:53;34;29;20
57049;PMS7003;42935;50.966;16.992;2023-06-22T02:01:10;34;30;21
57049;PMS7003;42935;50.966;16.992;2023-06-22T02:07:52;31;29;21
57049;PMS7003;42935;50.966;16.992;2023-06-22T02:11:18;36;31;22
57049;PMS7003;42935;50.966;16.992;2023-06-22T02:14:37;33;29;20
57049;PMS7003;42935;50.966;16.992;2023-06-22T02:18:03;36;30;21
57049;PMS7003;42935;50.966;16.992;2023-06-22T02:21:21;37;31;21
57049;PMS7003;42935;50.966;16.992;2023-06-22T02:24:40;36;30;21
57049;PMS7003;42935;50.966;16.992;2023-06-22T02:27:52;32;29;21
57049;PMS7003;42935;50.966;16.992;2023-06-22T02:31:09;37;31;21
57049;PMS7003;42935;50.966;16.992;2023-06-22T02:34:31;38;30;21
57049;PMS7003;42935;50.966;16.992;2023-06-22T02:37:46;36;32;22
57049;PMS7003;42935;50.966;16.992;2023-06-22T02:41:04;33;29;20
57049;PMS7003;42935;50.966;16.992;2023-06-22T02:44:22;36;32;21
57049;PMS7003;42935;50.966;16.992;2023-06-22T02:47:43;34;28;19
57049;PMS7003;42935;50.966;16.992;2023-06-22T02:50:59;34;30;21
57049;PMS7003;42935;50.966;16.992;2023-06-22T02:54:16;31;28;20
57049;PMS7003;42935;50.966;16.992;2023-06-22T02:57:37;33;28;20
57049;PMS7003;42935;50.966;16.992;2023-06-22T03:01:00;32;29;21
57049;PMS7003;42935;50.966;16.992;2023-06-22T03:04:23;35;31;21
57049;PMS7003;42935;50.966;16.992;2023-06-22T03:07:40;35;30;21
57049;PMS7003;42935;50.966;16.992;2023-06-22T03:10:57;35;30;21
57049;PMS7003;42935;50.966;16.992;2023-06-22T03:14:18;36;30;21
57049;PMS7003;42935;50.966;16.992;2023-06-22T03:17:43;41;34;22
57049;PMS7003;42935;50.966;16.992;2023-06-22T03:21:01;35;30;21
57049;PMS7003;42935;50.966;16.992;2023-06-22T03:24:18;35;30;21
57049;PMS7003;42935;50.966;16.992;2023-06-22T03:27:31;35;30;21
57049;PMS7003;42935;50.966;16.992;2023-06-22T03:30:48;34;30;20
57049;PMS7003;42935;50.966;16.992;2023-06-22T03:34:07;34;29;22
57049;PMS7003;42935;50.966;16.992;2023-06-22T03:37:28;37;31;22
57049;PMS7003;42935;50.966;16.992;2023-06-22T03:40:45;36;29;20
57049;PMS7003;42935;50.966;16.992;2023-06-22T03:44:02;37;30;20
57049;PMS7003;42935;50.966;16.992;2023-06-22T03:47:19;35;30;21
57049;PMS7003;42935;50.966;16.992;2023-06-22T03:50:36;40;33;22
57049;PMS7003;42935;50.966;16.992;2023-06-22T03:53:51;38;32;22
57049;PMS7003;42935;50.966;16.992;2023-06-22T03:57:15;35;30;20
57049;PMS7003;42935;50.966;16.992;2023-06-22T04:00:36;39;32;22
57049;PMS7003;42935;50.966;16.992;2023-06-22T04:03:51;39;32;22
57049;PMS7003;42935;50.966;16.992;2023-06-22T04:07:14;40;33;21
57049;PMS7003;42935;50.966;16.992;2023-06-22T04:10:36;39;32;21
57049;PMS7003;42935;50.966;16.992;2023-06-22T04:13:53;39;33;23
57049;PMS7003;42935;50.966;16.992;2023-06-22T04:17:20;38;33;22
57049;PMS7003;42935;50.966;16.992;2023-06-22T04:20:37;34;32;22
57049;PMS7003;42935;50.966;16.992;2023-06-22T04:23:49;40;33;22
57049;PMS7003;42935;50.966;16.992;2023-06-22T04:27:13;43;36;23
57049;PMS7003;42935;50.966;16.992;2023-06-22T04:30:32;35;31;22
57049;PMS7003;42935;50.966;16.992;2023-06-22T04:33:57;42;34;23
57049;PMS7003;42935;50.966;16.992;2023-06-22T04:37:20;42;34;22
57049;PMS7003;42935;50.966;16.992;2023-06-22T04:40:39;39;33;23
57049;PMS7003;42935;50.966;16.992;2023-06-22T04:43:59;38;33;22
57049;PMS7003;42935;50.966;16.992;2023-06-22T04:47:22;37;31;22
57049;PMS7003;42935;50.966;16.992;2023-06-22T04:50:37;38;32;22
57049;PMS7003;42935;50.966;16.992;2023-06-22T04:53:58;45;38;24
57049;PMS7003;42935;50.966;16.992;2023-06-22T04:57:24;41;34;23
57049;PMS7003;42935;50.966;16.992;2023-06-22T05:00:51;43;35;23
57049;PMS7003;42935;50.966;16.992;2023-06-22T05:04:07;42;33;23
57049;PMS7003;42935;50.966;16.992;2023-06-22T05:07:28;41;34;22
57049;PMS7003;42935;50.966;16.992;2023-06-22T05:10:45;40;34;24
57049;PMS7003;42935;50.966;16.992;2023-06-22T05:14:08;41;34;22
57049;PMS7003;42935;50.966;16.992;2023-06-22T05:17:25;44;35;23
57049;PMS7003;42935;50.966;16.992;2023-06-22T05:20:42;40;34;22
57049;PMS7003;42935;50.966;16.992;2023-06-22T05:23:57;41;33;23
57049;PMS7003;42935;50.966;16.992;2023-06-22T05:27:17;42;34;23
57049;PMS7003;42935;50.966;16.992;2023-06-22T05:30:39;44;37;24
57049;PMS7003;42935;50.966;16.992;2023-06-22T05:33:56;40;35;24
57049;PMS7003;42935;50.966;16.992;2023-06-22T05:37:18;47;38;25
57049;PMS7003;42935;50.966;16.992;2023-06-22T05:40:37;47;39;26
57049;PMS7003;42935;50.966;16.992;2023-06-22T05:43:53;47;39;26
57049;PMS7003;42935;50.966;16.992;2023-06-22T05:47:18;50;40;26
57049;PMS7003;42935;50.966;16.992;2023-06-22T05:50:39;44;37;25
57049;PMS7003;42935;50.966;16.992;2023-06-22T05:54:00;46;39;25
57049;PMS7003;42935;50.966;16.992;2023-06-22T05:57:21;52;38;26
57049;PMS7003;42935;50.966;16.992;2023-06-22T06:00:39;50;40;26
57049;PMS7003;42935;50.966;16.992;2023-06-22T06:04:04;50;40;26
57049;PMS7003;42935;50.966;16.992;2023-06-22T06:07:26;50;41;25
57049;PMS7003;42935;50.966;16.992;2023-06-22T06:10:38;41;35;22
57049;PMS7003;42935;50.966;16.992;2023-06-22T06:13:56;40;32;22
57049;PMS7003;42935;50.966;16.992;2023-06-22T06:17:14;37;31;21
57049;PMS7003;42935;50.966;16.992;2023-06-22T06:20:34;32;29;20
57049;PMS7003;42935;50.966;16.992;2023-06-22T06:23:55;36;31;20
57049;PMS7003;42935;50.966;16.992;2023-06-22T06:27:17;35;30;20
57049;PMS7003;42935;50.966;16.992;2023-06-22T06:30:35;33;29;20
57049;PMS7003;42935;50.966;16.992;2023-06-22T06:34:00;34;30;20
57049;PMS7003;42935;50.966;16.992;2023-06-22T06:37:21;34;29;20
57049;PMS7003;42935;50.966;16.992;2023-06-22T06:40:38;30;29;20
57049;PMS7003;42935;50.966;16.992;2023-06-22T06:43:53;32;29;19
57049;PMS7003;42935;50.966;16.992;2023-06-22T06:47:14;31;28;19
57049;PMS7003;42935;50.966;16.992;2023-06-22T06:50:29;31;28;19
57049;PMS7003;42935;50.966;16.992;2023-06-22T06:53:49;31;27;20
57049;PMS7003;42935;50.966;16.992;2023-06-22T06:57:01;30;27;18
57049;PMS7003;42935;50.966;16.992;2023-06-22T07:00:20;36;30;21
57049;PMS7003;42935;50.966;16.992;2023-06-22T07:03:38;38;30;20
57049;PMS7003;42935;50.966;16.992;2023-06-22T07:06:52;33;29;20
57049;PMS7003;42935;50.966;16.992;2023-06-22T07:10:10;35;30;21
57049;PMS7003;42935;50.966;16.992;2023-06-22T07:13:24;34;29;20
57049;PMS7003;42935;50.966;16.992;2023-06-22T07:16:41;33;28;20
57049;PMS7003;42935;50.966;16.992;2023-06-22T07:20:05;36;30;21
57049;PMS7003;42935;50.966;16.992;2023-06-22T07:23:26;36;31;21
57049;PMS7003;42935;50.966;16.992;2023-06-22T07:26:50;32;28;19
57049;PMS7003;42935;50.966;16.992;2023-06-22T07:30:10;32;28;20
57049;PMS7003;42935;50.966;16.992;2023-06-22T07:33:32;29;27;19
57049;PMS7003;42935;50.966;16.992;2023-06-22T07:36:57;30;26;18
57049;PMS7003;42935;50.966;16.992;2023-06-22T07:40:14;31;28;20
57049;PMS7003;42935;50.966;16.992;2023-06-22T07:43:31;34;30;19
57049;PMS7003;42935;50.966;16.992;2023-06-22T07:46:51;29;27;19
57049;PMS7003;42935;50.966;16.992;2023-06-22T07:50:09;29;27;19
57049;PMS7003;42935;50.966;16.992;2023-06-22T07:53:29;33;27;18
57049;PMS7003;42935;50.966;16.992;2023-06-22T07:56:46;29;28;19
57049;PMS7003;42935;50.966;16.992;2023-06-22T08:00:08;31;28;20
57049;PMS7003;42935;50.966;16.992;2023-06-22T08:03:35;31;28;19
57049;PMS7003;42935;50.966;16.992;2023-06-22T08:06:54;31;28;19
57049;PMS7003;42935;50.966;16.992;2023-06-22T08:10:09;32;28;20
57049;PMS7003;42935;50.966;16.992;2023-06-22T08:13:35;29;26;19
57049;PMS7003;42935;50.966;16.992;2023-06-22T08:16:55;30;27;18
57049;PMS7003;42935;50.966;16.992;2023-06-22T08:20:16;29;25;17
57049;PMS7003;42935;50.966;16.992;2023-06-22T08:23:34;30;28;19
57049;PMS7003;42935;50.966;16.992;2023-06-22T08:26:52;31;28;19
57049;PMS7003;42935;50.966;16.992;2023-06-22T08:30:11;29;25;19
57049;PMS7003;42935;50.966;16.992;2023-06-22T08:33:24;27;26;18
57049;PMS7003;42935;50.966;16.992;2023-06-22T08:36:44;30;28;19
57049;PMS7003;42935;50.966;16.992;2023-06-22T08:40:07;33;29;18
57049;PMS7003;42935;50.966;16.992;2023-06-22T08:43:26;28;26;18
57049;PMS7003;42935;50.966;16.992;2023-06-22T08:46:43;31;28;18
57049;PMS7003;42935;50.966;16.992;2023-06-22T08:50:14;32;29;20
57049;PMS7003;42935;50.966;16.992;2023-06-22T08:53:36;31;28;19
57049;PMS7003;42935;50.966;16.992;2023-06-22T08:56:56;28;27;19
57049;PMS7003;42935;50.966;16.992;2023-06-22T09:00:14;30;26;19
57049;PMS7003;42935;50.966;16.992;2023-06-22T09:03:34;28;27;19
57049;PMS7003;42935;50.966;16.992;2023-06-22T09:06:56;31;28;19
57049;PMS7003;42935;50.966;16.992;2023-06-22T09:10:13;30;26;18
57049;PMS7003;42935;50.966;16.992;2023-06-22T09:13:35;28;26;19
57049;PMS7003;42935;50.966;16.992;2023-06-22T09:16:59;30;26;18
57049;PMS7003;42935;50.966;16.992;2023-06-22T09:20:16;27;25;19
57049;PMS7003;42935;50.966;16.992;2023-06-22T09:23:30;23;22;17
57049;PMS7003;42935;50.966;16.992;2023-06-22T09:26:45;27;24;17
57049;PMS7003;42935;50.966;16.992;2023-06-22T09:30:07;26;23;18
57049;PMS7003;42935;50.966;16.992;2023-06-22T09:33:25;25;23;16
57049;PMS7003;42935;50.966;16.992;2023-06-22T09:36:43;26;23;16
57049;PMS7003;42935;50.966;16.992;2023-06-22T09:40:06;26;23;17
57049;PMS7003;42935;50.966;16.992;2023-06-22T09:43:27;25;23;18
57049;PMS7003;42935;50.966;16.992;2023-06-22T09:46:47;24;21;16
57049;PMS7003;42935;50.966;16.992;2023-06-22T09:50:05;24;23;16
57049;PMS7003;42935;50.966;16.992;2023-06-22T09:53:22;26;25;18
57049;PMS7003;42935;50.966;16.992;2023-06-22T09:56:40;30;27;18
57049;PMS7003;42935;50.966;16.992;2023-06-22T10:00:00;27;25;17
57049;PMS7003;42935;50.966;16.992;2023-06-22T10:03:24;25;23;17
57049;PMS7003;42935;50.966;16.992;2023-06-22T10:06:44;31;26;18
57049;PMS7003;42935;50.966;16.992;2023-06-22T10:10:06;26;23;17
57049;PMS7003;42935;50.966;16.992;2023-06-22T10:13:24;26;24;17
57049;PMS7003;42935;50.966;16.992;2023-06-22T10:16:41;23;23;17
57049;PMS7003;42935;50.966;16.992;2023-06-22T10:19:54;25;23;16
57049;PMS7003;42935;50.966;16.992;2023-06-22T10:23:12;27;26;18
57049;PMS7003;42935;50.966;16.992;2023-06-22T10:26:28;23;22;17
57049;PMS7003;42935;50.966;16.992;2023-06-22T10:29:48;27;24;18
57049;PMS7003;42935;50.966;16.992;2023-06-22T10:33:09;25;24;17
57049;PMS7003;42935;50.966;16.992;2023-06-22T10:36:26;29;23;17
57049;PMS7003;42935;50.966;16.992;2023-06-22T10:39:44;23;22;15
57049;PMS7003;42935;50.966;16.992;2023-06-22T10:43:05;22;21;15
57049;PMS7003;42935;50.966;16.992;2023-06-22T10:46:26;24;22;15
57049;PMS7003;42935;50.966;16.992;2023-06-22T10:49:47;22;21;15
57049;PMS7003;42935;50.966;16.992;2023-06-22T10:53:04;22;20;15
57049;PMS7003;42935;50.966;16.992;2023-06-22T10:56:29;22;21;16
57049;PMS7003;42935;50.966;16.992;2023-06-22T10:59:44;18;18;13
57049;PMS7003;42935;50.966;16.992;2023-06-22T11:03:01;20;19;15
57049;PMS7003;42935;50.966;16.992;2023-06-22T11:06:20;22;19;15
57049;PMS7003;42935;50.966;16.992;2023-06-22T11:09:37;19;18;14
57049;PMS7003;42935;50.966;16.992;2023-06-22T11:12:55;20;20;14
57049;PMS7003;42935;50.966;16.992;2023-06-22T11:16:17;17;17;12
57049;PMS7003;42935;50.966;16.992;2023-06-22T11:19:38;19;18;14
57049;PMS7003;42935;50.966;16.992;2023-06-22T11:22:55;22;20;13
57049;PMS7003;42935;50.966;16.992;2023-06-22T11:26:10;20;19;13
57049;PMS7003;42935;50.966;16.992;2023-06-22T11:29:29;17;17;13
57049;PMS7003;42935;50.966;16.992;2023-06-22T11:32:48;19;17;13
57049;PMS7003;42935;50.966;16.992;2023-06-22T11:36:05;18;16;12
57049;PMS7003;42935;50.966;16.992;2023-06-22T11:39:26;17;16;12
57049;PMS7003;42935;50.966;16.992;2023-06-22T11:42:43;16;15;12
57049;PMS7003;42935;50.966;16.992;2023-06-22T11:46:00;16;15;10
57049;PMS7003;42935;50.966;16.992;2023-06-22T11:49:19;16;14;11
57049;PMS7003;42935;50.966;16.992;2023-06-22T11:52:36;15;13;11
57049;PMS7003;42935;50.966;16.992;2023-06-22T11:55:55;18;16;12
57049;PMS7003;42935;50.966;16.992;2023-06-22T11:59:10;16;15;12
57049;PMS7003;42935;50.966;16.992;2023-06-22T12:02:24;17;15;12
57049;PMS7003;42935;50.966;16.992;2023-06-22T12:05:42;16;15;12
57049;PMS7003;42935;50.966;16.992;2023-06-22T12:08:59;14;14;11
57049;PMS7003;42935;50.966;16.992;2023-06-22T12:12:18;17;14;10
57049;PMS7003;42935;50.966;16.992;2023-06-22T12:15:35;14;13;9
57049;PMS7003;42935;50.966;16.992;2023-06-22T12:18:52;20;17;13
57049;PMS7003;42935;50.966;16.992;2023-06-22T12:22:07;16;15;12
57049;PMS7003;42935;50.966;16.992;2023-06-22T12:25:24;18;15;12
57049;PMS7003;42935;50.966;16.992;2023-06-22T12:28:42;14;14;11
57049;PMS7003;42935;50.966;16.992;2023-06-22T12:31:59;13;13;9
57049;PMS7003;42935;50.966;16.992;2023-06-22T12:35:17;16;16;12
57049;PMS7003;42935;50.966;16.992;2023-06-22T12:38:36;15;14;11
57049;PMS7003;42935;50.966;16.992;2023-06-22T12:41:53;14;13;10
57049;PMS7003;42935;50.966;16.992;2023-06-22T12:45:14;16;15;11
57049;PMS7003;42935;50.966;16.992;2023-06-22T12:48:28;13;12;10
57049;PMS7003;42935;50.966;16.992;2023-06-22T12:51:45;16;16;12
57049;PMS7003;42935;50.966;16.992;2023-06-22T12:55:02;18;16;12
57049;PMS7003;42935;50.966;16.992;2023-06-22T12:58:19;14;14;11
57049;PMS7003;42935;50.966;16.992;2023-06-22T13:01:32;13;13;11
57049;PMS7003;42935;50.966;16.992;2023-06-22T13:04:53;14;14;10
57049;PMS7003;42935;50.966;16.992;2023-06-22T13:08:06;15;13;9
57049;PMS7003;42935;50.966;16.992;2023-06-22T13:11:21;13;12;9
57049;PMS7003;42935;50.966;16.992;2023-06-22T13:14:38;11;11;9
57049;PMS7003;42935;50.966;16.992;2023-06-22T13:17:57;13;12;9
57049;PMS7003;42935;50.966;16.992;2023-06-22T13:21:14;14;14;10
57049;PMS7003;42935;50.966;16.992;2023-06-22T13:24:32;13;13;10
57049;PMS7003;42935;50.966;16.992;2023-06-22T13:28:22;12;11;9
57049;PMS7003;42935;50.966;16.992;2023-06-22T13:32:09;14;13;9
57049;PMS7003;42935;50.966;16.992;2023-06-22T13:35:26;13;12;10
57049;PMS7003;42935;50.966;16.992;2023-06-22T13:38:47;15;12;9
57049;PMS7003;42935;50.966;16.992;2023-06-22T13:42:02;12;11;9
57049;PMS7003;42935;50.966;16.992;2023-06-22T13:45:19;13;13;11
57049;PMS7003;42935;50.966;16.992;2023-06-22T13:48:34;16;15;12
57049;PMS7003;42935;50.966;16.992;2023-06-22T14:06:25;16;15;11
57049;PMS7003;42935;50.966;16.992;2023-06-22T14:10:51;17;15;12
57049;PMS7003;42935;50.966;16.992;2023-06-22T14:14:10;15;15;12
57049;PMS7003;42935;50.966;16.992;2023-06-22T14:17:29;15;14;11
57049;PMS7003;42935;50.966;16.992;2023-06-22T14:20:45;15;12;10
57049;PMS7003;42935;50.966;16.992;2023-06-22T14:24:07;14;13;10
57049;PMS7003;42935;50.966;16.992;2023-06-22T14:27:53;15;13;9
57049;PMS7003;42935;50.966;16.992;2023-06-22T14:31:08;13;13;10
57049;PMS7003;42935;50.966;16.992;2023-06-22T14:34:27;11;10;9
57049;PMS7003;42935;50.966;16.992;2023-06-22T14:37:40;13;12;8
57049;PMS7003;42935;50.966;16.992;2023-06-22T14:41:03;14;13;10
57049;PMS7003;42935;50.966;16.992;2023-06-22T14:44:24;13;13;10
57049;PMS7003;42935;50.966;16.992;2023-06-22T14:47:39;11;11;9
57049;PMS7003;42935;50.966;16.992;2023-06-22T14:50:56;12;11;9
57049;PMS7003;42935;50.966;16.992;2023-06-22T14:54:18;15;13;9
57049;PMS7003;42935;50.966;16.992;2023-06-22T14:57:35;14;13;11
57049;PMS7003;42935;50.966;16.992;2023-06-22T15:00:52;14;14;11
57049;PMS7003;42935;50.966;16.992;2023-06-22T15:04:10;14;13;11
57049;PMS7003;42935;50.966;16.992;2023-06-22T15:07:28;16;12;10
57049;PMS7003;42935;50.966;16.992;2023-06-22T15:10:46;17;15;12
57049;PMS7003;42935;50.966;16.992;2023-06-22T15:14:01;12;12;10
57049;PMS7003;42935;50.966;16.992;2023-06-22T15:17:14;13;13;9
57049;PMS7003;42935;50.966;16.992;2023-06-22T15:20:35;15;14;11
57049;PMS7003;42935;50.966;16.992;2023-06-22T15:23:51;14;14;11
57049;PMS7003;42935;50.966;16.992;2023-06-22T15:27:34;14;14;11
57049;PMS7003;42935;50.966;16.992;2023-06-22T15:30:49;16;14;11
57049;PMS7003;42935;50.966;16.992;2023-06-22T15:34:05;14;14;11
57049;PMS7003;42935;50.966;16.992;2023-06-22T15:37:20;12;12;10
57049;PMS7003;42935;50.966;16.992;2023-06-22T15:40:37;14;13;11
57049;PMS7003;42935;50.966;16.992;2023-06-22T15:43:56;14;12;9
57049;PMS7003;42935;50.966;16.992;2023-06-22T15:47:17;17;14;11
57049;PMS7003;42935;50.966;16.992;2023-06-22T15:50:33;14;13;11
57049;PMS7003;42935;50.966;16.992;2023-06-22T15:53:54;18;17;12
57049;PMS7003;42935;50.966;16.992;2023-06-22T15:57:11;16;16;13
57049;PMS7003;42935;50.966;16.992;2023-06-22T16:00:26;17;16;12
57049;PMS7003;42935;50.966;16.992;2023-06-22T16:03:39;19;15;12
57049;PMS7003;42935;50.966;16.992;2023-06-22T16:07:00;16;16;12
57049;PMS7003;42935;50.966;16.992;2023-06-22T16:10:19;14;13;11
57049;PMS7003;42935;50.966;16.992;2023-06-22T16:13:36;18;16;13
57049;PMS7003;42935;50.966;16.992;2023-06-22T16:16:58;17;15;11
57049;PMS7003;42935;50.966;16.992;2023-06-22T16:20:15;18;15;12
57049;PMS7003;42935;50.966;16.992;2023-06-22T16:23:35;16;15;12
57049;PMS7003;42935;50.966;16.992;2023-06-22T16:26:56;17;15;12
57049;PMS7003;42935;50.966;16.992;2023-06-22T16:30:13;15;14;11
57049;PMS7003;42935;50.966;16.992;2023-06-22T16:33:26;16;16;12
57049;PMS7003;42935;50.966;16.992;2023-06-22T16:36:45;19;16;13
57049;PMS7003;42935;50.966;16.992;2023-06-22T16:40:06;16;15;11
57049;PMS7003;42935;50.966;16.992;2023-06-22T16:43:25;22;20;15
57049;PMS7003;42935;50.966;16.992;2023-06-22T16:46:43;18;16;12
57049;PMS7003;42935;50.966;16.992;2023-06-22T16:49:58;17;16;12
57049;PMS7003;42935;50.966;16.992;2023-06-22T16:53:55;16;14;11
57049;PMS7003;42935;50.966;16.992;2023-06-22T16:57:13;19;17;12
57049;PMS7003;42935;50.966;16.992;2023-06-22T17:00:26;15;14;11
57049;PMS7003;42935;50.966;16.992;2023-06-22T17:03:44;18;15;12
57049;PMS7003;42935;50.966;16.992;2023-06-22T17:07:08;15;15;11
57049;PMS7003;42935;50.966;16.992;2023-06-22T17:10:31;18;15;11
57049;PMS7003;42935;50.966;16.992;2023-06-22T17:13:51;16;15;12
57049;PMS7003;42935;50.966;16.992;2023-06-22T17:17:04;17;16;11
57049;PMS7003;42935;50.966;16.992;2023-06-22T17:20:17;18;15;12
57049;PMS7003;42935;50.966;16.992;2023-06-22T17:23:30;15;15;11
57049;PMS7003;42935;50.966;16.992;2023-06-22T17:26:48;16;16;12
57049;PMS7003;42935;50.966;16.992;2023-06-22T17:30:09;15;14;11
57049;PMS7003;42935;50.966;16.992;2023-06-22T17:33:35;16;16;12
57049;PMS7003;42935;50.966;16.992;2023-06-22T17:36:54;18;16;12
57049;PMS7003;42935;50.966;16.992;2023-06-22T17:40:15;20;18;13
57049;PMS7003;42935;50.966;16.992;2023-06-22T17:47:06;23;22;15
57049;PMS7003;42935;50.966;16.992;2023-06-22T17:50:23;18;16;12
57049;PMS7003;42935;50.966;16.992;2023-06-22T17:53:46;18;16;12
57049;PMS7003;42935;50.966;16.992;2023-06-22T17:57:14;17;16;12
57049;PMS7003;42935;50.966;16.992;2023-06-22T18:00:33;16;15;11
57049;PMS7003;42935;50.966;16.992;2023-06-22T18:03:54;15;13;11
57049;PMS7003;42935;50.966;16.992;2023-06-22T18:07:09;16;13;11
57049;PMS7003;42935;50.966;16.992;2023-06-22T18:10:28;17;16;12
57049;PMS7003;42935;50.966;16.992;2023-06-22T18:13:44;18;17;12
57049;PMS7003;42935;50.966;16.992;2023-06-22T18:17:02;21;20;15
57049;PMS7003;42935;50.966;16.992;2023-06-22T18:20:16;19;19;14
57049;PMS7003;42935;50.966;16.992;2023-06-22T18:23:34;18;17;13
57049;PMS7003;42935;50.966;16.992;2023-06-22T18:26:56;21;19;15
57049;PMS7003;42935;50.966;16.992;2023-06-22T18:30:16;25;23;16
57049;PMS7003;42935;50.966;16.992;2023-06-22T18:33:38;30;26;19
57049;PMS7003;42935;50.966;16.992;2023-06-22T18:37:30;31;27;19
57049;PMS7003;42935;50.966;16.992;2023-06-22T18:40:49;18;16;13
57049;PMS7003;42935;50.966;16.992;2023-06-22T18:44:04;17;15;10
57049;PMS7003;42935;50.966;16.992;2023-06-22T18:47:27;19;16;13
57049;PMS7003;42935;50.966;16.992;2023-06-22T18:50:44;18;17;13
57049;PMS7003;42935;50.966;16.992;2023-06-22T18:54:04;19;17;13
57049;PMS7003;42935;50.966;16.992;2023-06-22T18:57:25;18;18;14
57049;PMS7003;42935;50.966;16.992;2023-06-22T19:00:49;19;16;12
57049;PMS7003;42935;50.966;16.992;2023-06-22T19:04:42;16;15;12
57049;PMS7003;42935;50.966;16.992;2023-06-22T19:08:00;33;28;18
57049;PMS7003;42935;50.966;16.992;2023-06-22T19:11:19;33;25;16
57049;PMS7003;42935;50.966;16.992;2023-06-22T19:18:16;30;23;16
57049;PMS7003;42935;50.966;16.992;2023-06-22T19:21:41;23;19;14
57049;PMS7003;42935;50.966;16.992;2023-06-22T19:25:02;37;28;19
57049;PMS7003;42935;50.966;16.992;2023-06-22T19:28:24;33;25;16
57049;PMS7003;42935;50.966;16.992;2023-06-22T19:31:39;21;17;13
57049;PMS7003;42935;50.966;16.992;2023-06-22T19:35:00;30;20;14
57049;PMS7003;42935;50.966;16.992;2023-06-22T19:38:19;18;17;13
57049;PMS7003;42935;50.966;16.992;2023-06-22T19:41:40;17;16;13
57049;PMS7003;42935;50.966;16.992;2023-06-22T19:44:57;27;24;16
57049;PMS7003;42935;50.966;16.992;2023-06-22T19:48:15;31;28;19
57049;PMS7003;42935;50.966;16.992;2023-06-22T19:51:32;32;29;20
57049;PMS7003;42935;50.966;16.992;2023-06-22T19:54:51;28;26;19
57049;PMS7003;42935;50.966;16.992;2023-06-22T19:58:10;25;23;16
57049;PMS7003;42935;50.966;16.992;2023-06-22T20:01:32;27;24;17
57049;PMS7003;42935;50.966;16.992;2023-06-22T20:04:49;24;22;16
57049;PMS7003;42935;50.966;16.992;2023-06-22T20:08:09;28;23;17
57049;PMS7003;42935;50.966;16.992;2023-06-22T20:11:30;22;21;15
57049;PMS7003;42935;50.966;16.992;2023-06-22T20:14:49;24;19;15
57049;PMS7003;42935;50.966;16.992;2023-06-22T20:18:06;23;20;15
57049;PMS7003;42935;50.966;16.992;2023-06-22T20:21:22;19;17;13
57049;PMS7003;42935;50.966;16.992;2023-06-22T20:24:40;20;19;14
57049;PMS7003;42935;50.966;16.992;2023-06-22T20:28:04;19;18;14
57049;PMS7003;42935;50.966;16.992;2023-06-22T20:31:20;23;21;15
57049;PMS7003;42935;50.966;16.992;2023-06-22T20:34:38;22;20;15
57049;PMS7003;42935;50.966;16.992;2023-06-22T20:38:06;21;20;13
57049;PMS7003;42935;50.966;16.992;2023-06-22T20:41:22;23;20;15
57049;PMS7003;42935;50.966;16.992;2023-06-22T20:44:48;21;20;14
57049;PMS7003;42935;50.966;16.992;2023-06-22T20:48:03;22;19;15
57049;PMS7003;42935;50.966;16.992;2023-06-22T20:51:27;19;19;13
57049;PMS7003;42935;50.966;16.992;2023-06-22T20:54:46;18;16;12
57049;PMS7003;42935;50.966;16.992;2023-06-22T20:58:03;16;16;12
57049;PMS7003;42935;50.966;16.992;2023-06-22T21:01:21;16;14;11
57049;PMS7003;42935;50.966;16.992;2023-06-22T21:04:34;16;15;12
57049;PMS7003;42935;50.966;16.992;2023-06-22T21:07:55;16;14;11
57049;PMS7003;42935;50.966;16.992;2023-06-22T21:11:13;17;14;10
57049;PMS7003;42935;50.966;16.992;2023-06-22T21:14:27;14;13;10
57049;PMS7003;42935;50.966;16.992;2023-06-22T21:17:45;15;12;9
57049;PMS7003;42935;50.966;16.992;2023-06-22T21:21:01;18;17;13
57049;PMS7003;42935;50.966;16.992;2023-06-22T21:24:15;15;14;10
57049;PMS7003;42935;50.966;16.992;2023-06-22T21:27:33;18;14;11
57049;PMS7003;42935;50.966;16.992;2023-06-22T21:30:51;15;14;9
57049;PMS7003;42935;50.966;16.992;2023-06-22T21:34:08;16;15;10